Tiempo atmosférico en la estación meteorológica de Ballobar, Huesca (178 m.)

Fecha
DESCASC
Temp. máxima en grados centígrados (hora)
DESCASC
Temp. mínima en grados centígrados (hora)
DESCASC
Temp. media en grados centígrados
DESCASC
Racha de viento máxima en m/sg (hora)
DESCASC
Velocidad máxima media en intervalos de 10 minutos(hora)
DESCASC
Precipitaciones diarias en mm
DESCASC
Precipitaciones de 00:00 a 06:00 en mm
DESCASC
Precipitaciones de 06:00 a 12:00 en mm
DESCASC
Precipitaciones de 12:00 a 18:00 en mm
DESCASC
Precipitaciones de 18:00 a 24:00 en mm
DESCASC
21-08-2017 33.7 (17:00) 17.4 (06:40) 25.6 7.78 (21:00) 4.44 (20:10) 0 0 0 0 0
20-08-2017 30.2 (18:10) 14.9 (07:20) 22.6 7.22 (23:30) 4.44 (23:40) 0 0 0 0 0
19-08-2017 31.2 (17:40) 18.8 (07:30) 25 8.06 (01:40) 5 (01:50) 0 0 0 0 0
18-08-2017 36.7 (17:50) 20.2 (07:40) 28.5 11.67 (21:20) 7.22 (21:10) 0 0 0 0 0
17-08-2017 35.6 (16:50) 18.3 (00:00) 26.9 10.28 (19:40) 5.83 (19:40) 0 0 0 0 0
16-08-2017 33.5 (16:20) 19.7 (00:00) 26.6 6.94 (15:20) 3.89 (13:30) 0 0 0 0 0
15-08-2017 33.2 (15:20) 16.8 (00:00) 25 11.39 (20:30) 7.78 (20:30) 0 0 0 0 0
14-08-2017 34.1 (16:50) 17 (07:10) 25.5 12.5 (19:00) 7.78 (18:00) 0 0 0 0 0
13-08-2017 32.8 (17:40) 14.8 (00:00) 23.8 8.61 (19:20) 5.83 (19:00) 0 0 0 0 0
12-08-2017 29.5 (17:40) 11.4 (00:00) 20.4 5.83 (22:00) 3.61 (22:00) 0 0 0 0 0
11-08-2017 28.5 (18:20) 13.8 (00:00) 21.2 15.83 (00:30) 9.44 (00:50) 0 0 0 0 0
10-08-2017 26.6 (16:10) 13 (00:00) 19.8 15.83 (18:50) 10.28 (21:50) 0.2 0.2 0 0 0
09-08-2017 23 (15:30) 14.9 (00:00) 18.9 10.28 (01:00) 7.78 (01:20) 3.6 0 0 0.2 3.4
08-08-2017 29.2 (17:40) 21.3 (00:00) 25.3 15.56 (18:10) 9.72 (15:50) 0 0 0 0 0
07-08-2017 33.4 (15:30) 22.3 (00:00) 27.9 13.61 (21:10) 8.33 (21:10) 0 0 0 0 0
06-08-2017 31.2 (18:00) 18.9 (00:00) 25.1 7.78 (21:50) 4.17 (18:30) 0 0 0 0 0
05-08-2017 37.8 (17:40) 23 (00:00) 30.4 10.56 (21:30) 6.39 (19:00) 0 0 0 0 0
04-08-2017 39.1 (18:50) 21.6 (00:00) 30.3 6.39 (14:00) 3.89 (15:30) 0 0 0 0 0
03-08-2017 38.5 (16:50) 20.3 (00:00) 29.4 6.67 (20:40) 4.44 (20:50) 0 0 0 0 0
02-08-2017 36.4 (17:20) 21.1 (00:00) 28.8 14.72 (14:10) 6.67 (00:40) 0 0 0 0 0
01-08-2017 30.2 (18:30) 21.4 (00:00) 25.8 11.39 (00:10) 7.22 (00:10) 0 0 0 0 0
31-07-2017 35.4 (16:40) 22.7 (00:00) 29.1 15 (19:30) 9.72 (19:00) 0 0 0 0 0
30-07-2017 38.2 (17:00) 20.1 (00:00) 29.2 10.28 (22:10) 7.22 (17:20) 0 0 0 0 0
29-07-2017 35.5 (17:10) 20.6 (00:00) 28.1 9.17 (13:50) 6.11 (17:40) 0 0 0 0 0
28-07-2017 35.4 (18:30) 20.4 (00:00) 27.9 7.78 (20:30) 5.28 (19:40) 0 0 0 0 0
27-07-2017 36.3 (17:20) 17.1 (00:00) 26.7 7.5 (22:20) 4.72 (22:20) 0 0 0 0 0
26-07-2017 33.5 (18:50) 14.8 (00:00) 24.2 9.17 (20:30) 5.83 (21:50) 0 0 0 0 0
25-07-2017 30.2 (18:00) 15.9 (00:00) 23.1 15.28 (00:10) 9.17 (21:10) 0 0 0 0 0
24-07-2017 30 (16:00) 17.6 (00:00) 23.8 21.94 (20:30) 12.5 (17:10) 0 0 0 0 0
23-07-2017 29.5 (15:20) 20.6 (00:00) 25.1 7.78 (15:30) 5.28 (19:40) 0 0 0 0 0

Gráficas

Temp. máximas Temp. mínimas Temp. medias Precipitaciones Rachas de viento máximas Velocidades máximas media en intervalos de 10 minutos

Datos horarios

Fecha y hora oficial Temperatura (ºC) Velocidad del viento (km/h) Dirección del viento Racha (km/h) Dirección de racha Precipitación (mm) Presión (hPa) Tendencia (hPa) Humedad (%)
2017-08-21 23:00:00 26.2 4 Sudoeste 9 Sur 0 -- -- 65
2017-08-21 22:00:00 27.4 2 Norte 21 Sur 0 -- -- 60
2017-08-21 21:00:00 29.7 15 Sudeste 28 Este 0 -- -- 53
2017-08-21 20:00:00 31.8 15 Este 19 Este 0 -- -- 45
2017-08-21 19:00:00 33.4 12 Nordeste 20 Nordeste 0 -- -- 30
2017-08-21 18:00:00 33.6 11 Este 21 Este 0 -- -- 31
2017-08-21 17:00:00 33.7 12 Nordeste 20 Nordeste 0 -- -- 30
2017-08-21 16:00:00 32.9 11 Este 24 Este 0 -- -- 29
2017-08-21 15:00:00 31.8 13 Nordeste 21 Este 0 -- -- 32
2017-08-21 14:00:00 30.4 12 Nordeste 26 Nordeste 0 -- -- 34
2017-08-21 13:00:00 28.6 8 Nordeste 21 Este 0 -- -- 38
2017-08-21 12:00:00 26.4 8 Nordeste 17 Este 0 -- -- 44
2017-08-21 11:00:00 24.7 6 Nordeste 14 Este 0 -- -- 55
2017-08-21 10:00:00 22.8 6 Nordeste 11 Nordeste 0 -- -- 64
2017-08-21 09:00:00 19.7 5 Oeste 10 Oeste 0 -- -- 76
2017-08-21 08:00:00 17.6 2 Nordeste 5 Este 0 -- -- 78
2017-08-21 07:00:00 17.5 0 Calma 6 Este 0 -- -- 80
2017-08-21 06:00:00 17.9 2 Nordeste 3 Este 0 -- -- 77
2017-08-21 05:00:00 18 0 Calma 4 Nordeste 0 -- -- 75
2017-08-21 04:00:00 18.4 2 Este 6 Nordeste 0 -- -- 74
2017-08-21 03:00:00 19.5 3 Nordeste 8 Este 0 -- -- 74
2017-08-21 02:00:00 20.6 0 Calma 8 Nordeste 0 -- -- 71
2017-08-21 01:00:00 22.1 5 Nordeste 15 Nordeste 0 -- -- 65
2017-08-21 00:00:00 22.8 11 Nordeste 26 Este 0 -- -- 52
2017-08-20 23:00:00 23.8 9 Nordeste 13 Nordeste 0 -- -- 44
2017-08-20 22:00:00 25.5 2 Oeste 8 Este 0 -- -- 39
2017-08-20 21:00:00 27.9 4 Este 7 Este 0 -- -- 36
2017-08-20 20:00:00 29.6 5 Nordeste 13 Este 0 -- -- 34
2017-08-20 19:00:00 29.9 8 Este 14 Este 0 -- -- 31
2017-08-20 18:00:00 30.1 10 Este 20 Este 0 -- -- 32
2017-08-20 17:00:00 29.8 9 Este 17 Este 0 -- -- 32
2017-08-20 16:00:00 29.1 8 Nordeste 18 Este 0 -- -- 34
2017-08-20 15:00:00 27.6 6 Nordeste 17 Este 0 -- -- 37
2017-08-20 14:00:00 25.8 10 Nordeste 19 Este 0 -- -- 40
2017-08-20 13:00:00 24.5 11 Este 21 Sudeste 0 -- -- 45
2017-08-20 12:00:00 22.4 10 Nordeste 20 Nordeste 0 -- -- 50
2017-08-20 11:00:00 21.3 8 Este 18 Este 0 -- -- 54
2017-08-20 10:00:00 20.5 4 Este 12 Sudeste 0 -- -- 57
2017-08-20 09:00:00 18.3 5 Sur 8 Sudoeste 0 -- -- 63
2017-08-20 08:00:00 15.3 6 Oeste 12 Sudoeste 0 -- -- 74
2017-08-20 07:00:00 15.3 7 Sudoeste 12 Sudoeste 0 -- -- 74
2017-08-20 06:00:00 16.2 5 Oeste 10 Sudoeste 0 -- -- 71
2017-08-20 05:00:00 16.8 5 Sudoeste 9 Sudoeste 0 -- -- 68
2017-08-20 04:00:00 18.7 4 Sudoeste 13 Oeste 0 -- -- 60
2017-08-20 03:00:00 20.2 7 Noroeste 23 Oeste 0 -- -- 55
2017-08-20 02:00:00 20.5 6 Oeste 9 Noroeste 0 -- -- 48
2017-08-20 01:00:00 22.2 3 Oeste 10 Noroeste 0 -- -- 44
2017-08-20 00:00:00 23.4 3 Oeste 10 Sudoeste 0 -- -- 46
2017-08-19 23:00:00 25.7 3 Norte 12 Oeste 0 -- -- 46
2017-08-19 22:00:00 27.9 4 Sudoeste 21 Sudoeste 0 -- -- 35
2017-08-19 21:00:00 29.1 2 Este 7 Este 0 -- -- 44
2017-08-19 20:00:00 30.3 4 Nordeste 12 Este 0 -- -- 43
2017-08-19 19:00:00 31.2 8 Nordeste 14 Nordeste 0 -- -- 41
2017-08-19 18:00:00 30.9 8 Nordeste 15 Este 0 -- -- 40
2017-08-19 17:00:00 31 11 Este 20 Este 0 -- -- 40
2017-08-19 16:00:00 30.7 9 Nordeste 21 Este 0 -- -- 41
2017-08-19 15:00:00 29.1 9 Nordeste 20 Este 0 -- -- 45
2017-08-19 14:00:00 27.5 13 Este 20 Este 0 -- -- 49
2017-08-19 13:00:00 25.9 9 Nordeste 19 Este 0 -- -- 52
2017-08-19 12:00:00 24.6 13 Este 22 Nordeste 0 -- -- 57
2017-08-19 11:00:00 23.8 6 Norte 17 Nordeste 0 -- -- 58
2017-08-19 10:00:00 21.6 8 Nordeste 13 Nordeste 0 -- -- 64
2017-08-19 09:00:00 20.9 4 Sudeste 9 Sudoeste 0 -- -- 65
2017-08-19 08:00:00 19.1 4 Sudoeste 10 Sudoeste 0 -- -- 71
2017-08-19 07:00:00 19.1 4 Oeste 14 Sur 0 -- -- 71
2017-08-19 06:00:00 20.5 6 Sur 15 Sudeste 0 -- -- 66
2017-08-19 05:00:00 21.8 3 Oeste 17 Sudoeste 0 -- -- 62
2017-08-19 04:00:00 22.1 9 Sudoeste 16 Sudoeste 0 -- -- 62
2017-08-19 03:00:00 22.5 10 Sur 23 Sudoeste 0 -- -- 63
2017-08-19 02:00:00 23.4 11 Oeste 29 Oeste 0 -- -- 59
2017-08-19 01:00:00 23.8 15 Oeste 28 Noroeste 0 -- -- 58
2017-08-19 00:00:00 25.3 9 Noroeste 21 Oeste 0 -- -- 53
2017-08-18 23:00:00 26.9 15 Oeste 30 Oeste 0 -- -- 47
2017-08-18 22:00:00 28.6 7 Nordeste 42 Oeste 0 -- -- 42
2017-08-18 21:00:00 30.4 24 Oeste 40 Oeste 0 -- -- 39
2017-08-18 20:00:00 34.7 17 Noroeste 26 Noroeste 0 -- -- 36
2017-08-18 19:00:00 36 5 Oeste 21 Nordeste 0 -- -- 34
2017-08-18 18:00:00 36.1 9 Nordeste 19 Nordeste 0 -- -- 35
2017-08-18 17:00:00 35.8 11 Nordeste 18 Nordeste 0 -- -- 39
2017-08-18 16:00:00 35.2 10 Nordeste 22 Nordeste 0 -- -- 40
2017-08-18 15:00:00 34.2 10 Nordeste 19 Nordeste 0 -- -- 43
2017-08-18 14:00:00 32.9 9 Nordeste 21 Este 0 -- -- 46
2017-08-18 13:00:00 31.2 10 Este 17 Este 0 -- -- 49
2017-08-18 12:00:00 29.2 12 Este 17 Este 0 -- -- 56
2017-08-18 11:00:00 27.4 9 Este 24 Este 0 -- -- 61
2017-08-18 10:00:00 25.5 8 Este 14 Nordeste 0 -- -- 66
2017-08-18 09:00:00 22.9 6 Este 9 Este 0 -- -- 77
2017-08-18 08:00:00 20.6 2 Nordeste 8 Nordeste 0 -- -- 84
2017-08-18 07:00:00 20.5 3 Oeste 6 Oeste 0 -- -- 83
2017-08-18 06:00:00 21.1 2 Sur 11 Este 0 -- -- 82
2017-08-18 05:00:00 22.1 8 Nordeste 18 Nordeste 0 -- -- 79
2017-08-18 04:00:00 22.8 9 Este 16 Nordeste 0 -- -- 76
2017-08-18 03:00:00 23.3 11 Nordeste 19 Este 0 -- -- 73
2017-08-18 02:00:00 23.9 4 Este 16 Nordeste 0 -- -- 71
2017-08-18 01:00:00 24.2 10 Nordeste 16 Sudeste 0 -- -- 69
2017-08-18 00:00:00 25.2 8 Nordeste 19 Este 0 -- -- 62
2017-08-17 23:00:00 27.4 3 Este 17 Sur 0 -- -- 54
2017-08-17 22:00:00 28.9 10 Sudeste 22 Sur 0 -- -- 51
2017-08-17 21:00:00 31.2 12 Sudeste 24 Este 0 -- -- 43
2017-08-17 20:00:00 33.5 17 Este 37 Este 0 -- -- 34
2017-08-17 19:00:00 35.3 11 Este 19 Nordeste 0 -- -- 26
2017-08-17 18:00:00 35.4 15 Este 24 Este 0 -- -- 27
2017-08-17 17:00:00 35.6 15 Este 25 Este 0 -- -- 26
2017-08-17 16:00:00 34.7 8 Noroeste 19 Sur 0 -- -- 26
2017-08-17 15:00:00 34.4 6 Sudeste 21 Sur 0 -- -- 24
2017-08-17 14:00:00 32.2 11 Sudoeste 21 Sudoeste 0 -- -- 26
2017-08-17 13:00:00 30.9 6 Sudoeste 21 Nordeste 0 -- -- 26
2017-08-17 12:00:00 27.2 8 Nordeste 17 Este 0 -- -- 43
2017-08-17 11:00:00 25.4 9 Nordeste 15 Este 0 -- -- 46
2017-08-17 10:00:00 24 5 Este 12 Este 0 -- -- 49
2017-08-17 09:00:00 20.9 6 Sudoeste 12 Sudoeste 0 -- -- 54
2017-08-17 08:00:00 19 8 Oeste 12 Oeste 0 -- -- 62
2017-08-17 07:00:00 18.4 9 Oeste 13 Oeste 0 -- -- 66
2017-08-17 06:00:00 19.3 5 Oeste 24 Oeste 0 -- -- 64
2017-08-17 05:00:00 21 14 Oeste 24 Oeste 0 -- -- 56
2017-08-17 04:00:00 22 4 Oeste 19 Oeste 0 -- -- 52
2017-08-17 03:00:00 23.8 14 Oeste 21 Sudoeste 0 -- -- 51
2017-08-17 02:00:00 23 4 Noroeste 10 Nordeste 0 -- -- 65
2017-08-17 01:00:00 24 3 Noroeste 13 Nordeste 0 -- -- 67
2017-08-17 00:00:00 26.1 4 Noroeste 18 Noroeste 0 -- -- 59
2017-08-16 23:00:00 27.1 6 Oeste 18 Sudoeste 0 -- -- 57
2017-08-16 22:00:00 27.7 2 Oeste 9 Nordeste 0 -- -- 54
2017-08-16 21:00:00 30.3 3 Noroeste 6 Nordeste 0 -- -- 49
2017-08-16 20:00:00 32.1 4 Nordeste 10 Nordeste 0 -- -- 45
2017-08-16 19:00:00 32.5 8 Nordeste 13 Este 0 -- -- 44
2017-08-16 18:00:00 32.6 8 Nordeste 18 Nordeste 0 -- -- 45
2017-08-16 17:00:00 32.9 9 Este 17 Nordeste 0 -- -- 42
2017-08-16 16:00:00 32.9 5 Sur 25 Sudoeste 0 -- -- 43
2017-08-16 15:00:00 31.8 6 Noroeste 23 Sudoeste 0 -- -- 46
2017-08-16 14:00:00 29.8 8 Sudoeste 24 Sudoeste 0 -- -- 51
2017-08-16 13:00:00 28.5 10 Sudoeste 23 Sur 0 -- -- 57
2017-08-16 12:00:00 26.9 9 Sur 24 Sur 0 -- -- 63
2017-08-16 11:00:00 24.6 9 Sudoeste 13 Sudoeste 0 -- -- 70
2017-08-16 10:00:00 22.4 6 Nordeste 10 Nordeste 0 -- -- 75
2017-08-16 09:00:00 20.8 6 Nordeste 9 Nordeste 0 -- -- 81
2017-08-16 08:00:00 20 4 Este 6 Nordeste 0 -- -- 83
2017-08-16 07:00:00 19.7 0 Calma 4 Oeste 0 -- -- 82
2017-08-16 06:00:00 19.8 2 Oeste 6 Nordeste 0 -- -- 80
2017-08-16 05:00:00 20.3 2 Oeste 6 Oeste 0 -- -- 79
2017-08-16 04:00:00 20.5 3 Sudoeste 5 Oeste 0 -- -- 78
2017-08-16 03:00:00 21.3 2 Sur 7 Nordeste 0 -- -- 76
2017-08-16 02:00:00 22.2 2 Nordeste 9 Nordeste 0 -- -- 73
2017-08-16 01:00:00 24.1 6 Este 12 Este 0 -- -- 66
2017-08-16 00:00:00 24.5 3 Oeste 18 Sudeste 0 -- -- 64
2017-08-15 23:00:00 25.1 6 Este 17 Nordeste 0 -- -- 62
2017-08-15 22:00:00 25.3 13 Nordeste 24 Este 0 -- -- 64
2017-08-15 21:00:00 26.2 17 Este 41 Este 0 -- -- 62
2017-08-15 20:00:00 27.7 17 Este 29 Este 0 -- -- 56
2017-08-15 19:00:00 30.3 16 Sudeste 35 Este 0 -- -- 45
2017-08-15 18:00:00 31.5 16 Este 27 Este 0 -- -- 45
2017-08-15 17:00:00 31.5 14 Sudeste 37 Este 0 -- -- 41
2017-08-15 16:00:00 33.2 19 Este 34 Nordeste 0 -- -- 38
2017-08-15 15:00:00 32.7 21 Este 39 Este 0 -- -- 38
2017-08-15 14:00:00 30.5 16 Este 35 Este 0 -- -- 45
2017-08-15 13:00:00 30.1 17 Este 26 Este 0 -- -- 44
2017-08-15 12:00:00 28.5 13 Este 23 Este 0 -- -- 49
2017-08-15 11:00:00 26.2 7 Este 13 Este 0 -- -- 57
2017-08-15 10:00:00 23.6 4 Nordeste 11 Nordeste 0 -- -- 60
2017-08-15 09:00:00 20.3 6 Nordeste 9 Nordeste 0 -- -- 68
2017-08-15 08:00:00 17.9 2 Oeste 6 Oeste 0 -- -- 75
2017-08-15 07:00:00 16.9 2 Este 5 Noroeste 0 -- -- 77
2017-08-15 06:00:00 17.6 0 Calma 10 Este 0 -- -- 75
2017-08-15 05:00:00 18.6 4 Nordeste 12 Nordeste 0 -- -- 70
2017-08-15 04:00:00 18.9 6 Nordeste 9 Este 0 -- -- 68
2017-08-15 03:00:00 20.5 4 Noroeste 14 Nordeste 0 -- -- 61
2017-08-15 02:00:00 21.5 10 Nordeste 22 Este 0 -- -- 59
2017-08-15 01:00:00 22.8 13 Este 22 Este 0 -- -- 54
2017-08-15 00:00:00 23 10 Este 20 Este 0 -- -- 52
2017-08-14 23:00:00 24.1 13 Este 32 Este 0 -- -- 52
2017-08-14 22:00:00 26 15 Este 28 Este 0 -- -- 44
2017-08-14 21:00:00 27.4 17 Este 35 Sudeste 0 -- -- 42
2017-08-14 20:00:00 29.2 20 Sudeste 42 Este 0 -- -- 41
2017-08-14 19:00:00 30.6 28 Este 45 Este 0 -- -- 39
2017-08-14 18:00:00 32.2 28 Este 45 Este 0 -- -- 36
2017-08-14 17:00:00 33.9 22 Este 40 Este 0 -- -- 30
2017-08-14 16:00:00 33.8 21 Este 36 Este 0 -- -- 31
2017-08-14 15:00:00 33.3 19 Este 30 Nordeste 0 -- -- 34
2017-08-14 14:00:00 32 20 Este 32 Este 0 -- -- 35
2017-08-14 13:00:00 29.7 17 Este 29 Este 0 -- -- 44
2017-08-14 12:00:00 27.8 13 Nordeste 25 Este 0 -- -- 51
2017-08-14 11:00:00 25.5 11 Este 17 Este 0 -- -- 59
2017-08-14 10:00:00 22.3 5 Nordeste 10 Nordeste 0 -- -- 68
2017-08-14 09:00:00 20.1 5 Nordeste 9 Nordeste 0 -- -- 73
2017-08-14 08:00:00 17.7 3 Este 6 Sudeste 0 -- -- 81
2017-08-14 07:00:00 17.1 3 Noroeste 4 Noroeste 0 -- -- 84
2017-08-14 06:00:00 18 4 Este 12 Nordeste 0 -- -- 79
2017-08-14 05:00:00 19.4 8 Nordeste 17 Nordeste 0 -- -- 74
2017-08-14 04:00:00 20.1 0 Calma 19 Este 0 -- -- 68
2017-08-14 03:00:00 20.4 9 Nordeste 19 Nordeste 0 -- -- 69
2017-08-14 02:00:00 21.6 12 Este 21 Este 0 -- -- 65
2017-08-14 01:00:00 21.5 11 Nordeste 18 Nordeste 0 -- -- 70
2017-08-14 00:00:00 23.3 10 Este 17 Este 0 -- -- 65
2017-08-13 23:00:00 23.9 7 Nordeste 16 Este 0 -- -- 64
2017-08-13 22:00:00 25.8 8 Sudeste 23 Sur 0 -- -- 57
2017-08-13 21:00:00 28 13 Sur 26 Sudeste 0 -- -- 48
2017-08-13 20:00:00 30.1 18 Este 31 Sudeste 0 -- -- 39
2017-08-13 19:00:00 31.2 21 Este 31 Este 0 -- -- 39
2017-08-13 18:00:00 32.6 14 Este 22 Este 0 -- -- 28
2017-08-13 17:00:00 32.2 13 Este 25 Este 0 -- -- 30
2017-08-13 16:00:00 31.7 17 Nordeste 28 Nordeste 0 -- -- 32
2017-08-13 15:00:00 30.6 12 Este 22 Este 0 -- -- 36
2017-08-13 14:00:00 29.4 8 Nordeste 17 Este 0 -- -- 39
2017-08-13 13:00:00 27.1 9 Nordeste 19 Nordeste 0 -- -- 47
2017-08-13 12:00:00 25.8 7 Este 14 Este 0 -- -- 51
2017-08-13 11:00:00 23.2 7 Este 13 Este 0 -- -- 60
2017-08-13 10:00:00 20.5 8 Nordeste 13 Nordeste 0 -- -- 66
2017-08-13 09:00:00 19.4 5 Nordeste 8 Nordeste 0 -- -- 68
2017-08-13 08:00:00 16.1 0 Calma 4 Oeste 0 -- -- 76
2017-08-13 07:00:00 14.9 0 Calma 4 Noroeste 0 -- -- 79
2017-08-13 06:00:00 15.7 0 Calma 4 Nordeste 0 -- -- 75
2017-08-13 05:00:00 16.6 0 Calma 4 Oeste 0 -- -- 73
2017-08-13 04:00:00 17.4 0 Calma 9 Nordeste 0 -- -- 72
2017-08-13 03:00:00 18.6 5 Nordeste 10 Nordeste 0 -- -- 68
2017-08-13 02:00:00 19 0 Calma 5 Nordeste 0 -- -- 63
2017-08-13 01:00:00 20.3 0 Calma 5 Sudoeste 0 -- -- 57
2017-08-13 00:00:00 22.2 4 Oeste 8 Oeste 0 -- -- 51
2017-08-12 23:00:00 23.2 2 Este 18 Este 0 -- -- 48
2017-08-12 22:00:00 25.6 13 Este 21 Este 0 -- -- 41
2017-08-12 21:00:00 27.1 11 Este 16 Este 0 -- -- 36
2017-08-12 20:00:00 28.1 6 Este 12 Este 0 -- -- 32
2017-08-12 19:00:00 29.3 9 Este 14 Nordeste 0 -- -- 31
2017-08-12 18:00:00 29.5 9 Nordeste 18 Este 0 -- -- 31
2017-08-12 17:00:00 29.1 10 Este 19 Este 0 -- -- 32
2017-08-12 16:00:00 28.1 8 Este 20 Nordeste 0 -- -- 35
2017-08-12 15:00:00 26.9 10 Nordeste 19 Nordeste 0 -- -- 37
2017-08-12 14:00:00 25.7 8 Este 17 Este 0 -- -- 40
2017-08-12 13:00:00 23.9 9 Nordeste 17 Nordeste 0 -- -- 44
2017-08-12 12:00:00 22.4 7 Nordeste 16 Norte 0 -- -- 46
2017-08-12 11:00:00 20.5 8 Nordeste 18 Este 0 -- -- 55
2017-08-12 10:00:00 18.6 5 Sur 10 Sudoeste 0 -- -- 58
2017-08-12 09:00:00 15.3 5 Oeste 13 Sudoeste 0 -- -- 68
2017-08-12 08:00:00 12.5 4 Oeste 8 Sudoeste 0 -- -- 76
2017-08-12 07:00:00 11.7 4 Noroeste 6 Noroeste 0 -- -- 79
2017-08-12 06:00:00 12.2 4 Noroeste 7 Noroeste 0 -- -- 76
2017-08-12 05:00:00 13 3 Oeste 10 Oeste 0 -- -- 73
2017-08-12 04:00:00 14 6 Oeste 12 Sudoeste 0 -- -- 69
2017-08-12 03:00:00 14.2 5 Oeste 8 Noroeste 0 -- -- 68
2017-08-12 02:00:00 15.3 6 Oeste 11 Oeste 0 -- -- 63
2017-08-12 01:00:00 17 7 Sudoeste 15 Sudoeste 0 -- -- 57
2017-08-12 00:00:00 18.4 3 Oeste 15 Sudoeste 0 -- -- 52
2017-08-11 23:00:00 19.5 9 Oeste 13 Sudoeste 0 -- -- 47
2017-08-11 22:00:00 21.9 3 Sur 23 Oeste 0 -- -- 41
2017-08-11 21:00:00 24.5 15 Oeste 22 Oeste 0 -- -- 36
2017-08-11 20:00:00 27.1 13 Noroeste 26 Oeste 0 -- -- 30
2017-08-11 19:00:00 28.4 15 Oeste 32 Oeste 0 -- -- 27
2017-08-11 18:00:00 28.3 17 Oeste 33 Oeste 0 -- -- 26
2017-08-11 17:00:00 27.8 16 Oeste 33 Oeste 0 -- -- 29
2017-08-11 16:00:00 27.3 10 Oeste 23 Oeste 0 -- -- 30
2017-08-11 15:00:00 25.6 10 Norte 22 Norte 0 -- -- 33
2017-08-11 14:00:00 23.9 8 Noroeste 25 Oeste 0 -- -- 37
2017-08-11 13:00:00 22.1 15 Oeste 29 Oeste 0 -- -- 41
2017-08-11 12:00:00 20.8 15 Noroeste 32 Oeste 0 -- -- 43
2017-08-11 11:00:00 19.7 14 Oeste 32 Oeste 0 -- -- 47
2017-08-11 10:00:00 18.6 17 Noroeste 33 Oeste 0 -- -- 49
2017-08-11 09:00:00 16.6 20 Oeste 41 Noroeste 0 -- -- 57
2017-08-11 08:00:00 15.4 20 Oeste 32 Oeste 0 -- -- 58
2017-08-11 07:00:00 14 12 Sudoeste 21 Sudoeste 0 -- -- 63
2017-08-11 06:00:00 14.6 10 Sudoeste 25 Sudoeste 0 -- -- 63
2017-08-11 05:00:00 15.2 21 Oeste 39 Oeste 0 -- -- 63
2017-08-11 04:00:00 15.5 15 Oeste 40 Oeste 0 -- -- 63
2017-08-11 03:00:00 16 25 Oeste 41 Oeste 0 -- -- 62
2017-08-11 02:00:00 16.4 20 Oeste 42 Oeste 0 -- -- 58
2017-08-11 01:00:00 17.6 33 Oeste 57 Noroeste 0 -- -- 50
2017-08-11 00:00:00 18.4 26 Oeste 50 Oeste 0 -- -- 47
2017-08-10 23:00:00 19.1 31 Oeste 57 Oeste 0 -- -- 50
2017-08-10 22:00:00 20.2 34 Oeste 54 Oeste 0 -- -- 50
2017-08-10 21:00:00 21.7 31 Oeste 54 Oeste 0 -- -- 47
2017-08-10 20:00:00 23.4 31 Oeste 56 Oeste 0 -- -- 44
2017-08-10 19:00:00 25.1 32 Oeste 57 Oeste 0 -- -- 41
2017-08-10 18:00:00 25.9 25 Oeste 51 Oeste 0 -- -- 39
2017-08-10 17:00:00 26 31 Oeste 57 Oeste 0 -- -- 38
2017-08-10 16:00:00 26.3 21 Oeste 40 Oeste 0 -- -- 36
2017-08-10 15:00:00 25.3 22 Noroeste 37 Oeste 0 -- -- 39
2017-08-10 14:00:00 24.7 17 Oeste 35 Oeste 0 -- -- 39
2017-08-10 13:00:00 23.1 16 Noroeste 33 Oeste 0 -- -- 42
2017-08-10 12:00:00 21.3 13 Noroeste 28 Noroeste 0 -- -- 50
2017-08-10 11:00:00 19.5 13 Noroeste 24 Noroeste 0 -- -- 58
2017-08-10 10:00:00 17.4 10 Oeste 18 Oeste 0 -- -- 66
2017-08-10 09:00:00 16.2 6 Nordeste 16 Oeste 0 -- -- 69
2017-08-10 08:00:00 14.1 7 Sudoeste 15 Sudoeste 0 -- -- 75
2017-08-10 07:00:00 13.3 5 Sudoeste 22 Oeste 0 -- -- 76
2017-08-10 06:00:00 13.8 12 Noroeste 24 Noroeste 0 -- -- 74
2017-08-10 05:00:00 13.9 15 Noroeste 27 Noroeste 0 -- -- 70
2017-08-10 04:00:00 13.8 13 Noroeste 32 Noroeste 0 -- -- 69
2017-08-10 03:00:00 14.5 21 Oeste 39 Oeste 0 -- -- 66
2017-08-10 02:00:00 15.1 28 Oeste 39 Oeste 0 -- -- 64
2017-08-10 01:00:00 15.2 15 Oeste 30 Oeste 0.2 -- -- 65
2017-08-10 00:00:00 16.3 16 Oeste 25 Oeste 0 -- -- 62
2017-08-09 23:00:00 16.6 14 Oeste 34 Oeste 0.2 -- -- 70
2017-08-09 22:00:00 16.3 13 Oeste 23 Oeste 0 -- -- 76
2017-08-09 21:00:00 16.5 10 Sudoeste 21 Sudoeste 0.2 -- -- 83
2017-08-09 20:00:00 16.9 15 Oeste 25 Sudoeste 1 -- -- 80
2017-08-09 19:00:00 17.5 5 Oeste 12 Sudoeste 2 -- -- 83
2017-08-09 18:00:00 20.1 6 Noroeste 14 Oeste 0.2 -- -- 62
2017-08-09 17:00:00 20.2 16 Noroeste 30 Noroeste 0 -- -- 57
2017-08-09 16:00:00 22.6 9 Sudeste 21 Este 0 -- -- 52
2017-08-09 15:00:00 22.2 13 Este 28 Este 0 -- -- 54
2017-08-09 14:00:00 21.3 10 Sudeste 15 Sudeste 0 -- -- 57
2017-08-09 13:00:00 19.9 9 Este 13 Este 0 -- -- 57
2017-08-09 12:00:00 20.3 8 Nordeste 14 Nordeste 0 -- -- 53
2017-08-09 11:00:00 19.9 6 Nordeste 14 Nordeste 0 -- -- 54
2017-08-09 10:00:00 18.2 7 Oeste 16 Oeste 0 -- -- 56
2017-08-09 09:00:00 16.7 5 Sudoeste 12 Oeste 0 -- -- 64
2017-08-09 08:00:00 15.5 8 Sudoeste 16 Oeste 0 -- -- 67
2017-08-09 07:00:00 15.3 11 Oeste 17 Oeste 0 -- -- 67
2017-08-09 06:00:00 15.1 10 Sudoeste 20 Sudoeste 0 -- -- 67
2017-08-09 05:00:00 15.1 7 Oeste 13 Sudoeste 0 -- -- 67
2017-08-09 04:00:00 16.4 5 Sudoeste 18 Sudoeste 0 -- -- 62
2017-08-09 03:00:00 17.6 10 Sudoeste 30 Oeste 0 -- -- 58
2017-08-09 02:00:00 18.2 22 Sudoeste 37 Oeste 0 -- -- 58
2017-08-09 01:00:00 19.2 23 Oeste 37 Oeste 0 -- -- 53
2017-08-09 00:00:00 21.3 15 Sudoeste 24 Oeste 0 -- -- 44
2017-08-08 23:00:00 21.9 15 Oeste 21 Oeste 0 -- -- 46
2017-08-08 22:00:00 22.4 11 Sur 35 Noroeste 0 -- -- 45
2017-08-08 21:00:00 23.8 24 Oeste 52 Oeste 0 -- -- 42
2017-08-08 20:00:00 26.2 18 Noroeste 44 Oeste 0 -- -- 36
2017-08-08 19:00:00 27.8 28 Oeste 56 Oeste 0 -- -- 31
2017-08-08 18:00:00 28.9 30 Oeste 47 Noroeste 0 -- -- 27
2017-08-08 17:00:00 29 24 Oeste 54 Noroeste 0 -- -- 29
2017-08-08 16:00:00 28.9 30 Oeste 50 Noroeste 0 -- -- 31
2017-08-08 15:00:00 27.9 31 Oeste 46 Oeste 0 -- -- 32
2017-08-08 14:00:00 27.8 26 Oeste 45 Oeste 0 -- -- 35
2017-08-08 13:00:00 26.8 24 Oeste 44 Oeste 0 -- -- 39
2017-08-08 12:00:00 25.6 32 Oeste 46 Oeste 0 -- -- 44
2017-08-08 11:00:00 24.5 28 Oeste 42 Oeste 0 -- -- 48
2017-08-08 10:00:00 22.6 21 Oeste 36 Oeste 0 -- -- 55
2017-08-08 09:00:00 22.2 22 Oeste 36 Oeste 0 -- -- 57
2017-08-08 08:00:00 22.1 11 Oeste 28 Oeste 0 -- -- 59
2017-08-08 07:00:00 22.4 20 Oeste 36 Oeste 0 -- -- 62
2017-08-08 06:00:00 23.3 17 Oeste 31 Oeste 0 -- -- 70
2017-08-08 05:00:00 24 9 Oeste 12 Oeste 0 -- -- 77
2017-08-08 04:00:00 24.4 6 Oeste 14 Este 0 -- -- 76
2017-08-08 03:00:00 24.6 11 Este 22 Este 0 -- -- 75
2017-08-08 02:00:00 24.5 13 Este 20 Este 0 -- -- 76
2017-08-08 01:00:00 24.9 13 Este 29 Este 0 -- -- 75
2017-08-08 00:00:00 25.7 18 Este 40 Este 0 -- -- 73
2017-08-07 23:00:00 26 25 Este 40 Sudeste 0 -- -- 72
2017-08-07 22:00:00 26.6 26 Este 49 Este 0 -- -- 70
2017-08-07 21:00:00 27.6 25 Este 47 Este 0 -- -- 64
2017-08-07 20:00:00 28.7 29 Este 47 Este 0 -- -- 60
2017-08-07 19:00:00 30.3 27 Este 45 Este 0 -- -- 56
2017-08-07 18:00:00 32 24 Este 43 Este 0 -- -- 50
2017-08-07 17:00:00 33 25 Este 43 Este 0 -- -- 49
2017-08-07 16:00:00 33.3 22 Este 36 Este 0 -- -- 47
2017-08-07 15:00:00 32.7 21 Este 40 Este 0 -- -- 49
2017-08-07 14:00:00 31.9 18 Este 35 Este 0 -- -- 52
2017-08-07 13:00:00 30.3 22 Este 32 Este 0 -- -- 57
2017-08-07 12:00:00 28.7 17 Este 29 Nordeste 0 -- -- 62
2017-08-07 11:00:00 26.1 14 Este 22 Este 0 -- -- 70
2017-08-07 10:00:00 24.5 8 Este 14 Este 0 -- -- 77
2017-08-07 09:00:00 23.3 13 Este 17 Este 0 -- -- 81
2017-08-07 08:00:00 22.5 8 Nordeste 13 Nordeste 0 -- -- 85
2017-08-07 07:00:00 22.4 7 Nordeste 14 Este 0 -- -- 84
2017-08-07 06:00:00 22.7 8 Nordeste 17 Nordeste 0 -- -- 82
2017-08-07 05:00:00 23.3 9 Este 19 Este 0 -- -- 79
2017-08-07 04:00:00 23.8 6 Nordeste 17 Este 0 -- -- 77
2017-08-07 03:00:00 24.2 5 Nordeste 18 Este 0 -- -- 77
2017-08-07 02:00:00 24.6 8 Nordeste 15 Este 0 -- -- 74
2017-08-07 01:00:00 25.6 8 Sudeste 17 Sudeste 0 -- -- 70
2017-08-07 00:00:00 26.3 4 Sudeste 13 Sur 0 -- -- 65
2017-08-06 23:00:00 27.4 8 Sudeste 18 Sur 0 -- -- 58
2017-08-06 22:00:00 28.1 14 Sudeste 28 Sudeste 0 -- -- 56
2017-08-06 21:00:00 29 13 Nordeste 18 Este 0 -- -- 55
2017-08-06 20:00:00 29.9 12 Nordeste 18 Nordeste 0 -- -- 47
2017-08-06 19:00:00 30.7 14 Nordeste 21 Este 0 -- -- 45
2017-08-06 18:00:00 31.2 13 Este 23 Nordeste 0 -- -- 42
2017-08-06 17:00:00 30.6 13 Nordeste 23 Este 0 -- -- 43
2017-08-06 16:00:00 30 14 Este 22 Este 0 -- -- 44
2017-08-06 15:00:00 29.2 11 Este 21 Este 0 -- -- 45
2017-08-06 14:00:00 27.6 12 Nordeste 21 Este 0 -- -- 48
2017-08-06 13:00:00 26.4 9 Nordeste 20 Nordeste 0 -- -- 50
2017-08-06 12:00:00 25.3 9 Este 16 Este 0 -- -- 53
2017-08-06 11:00:00 23.8 5 Nordeste 18 Nordeste 0 -- -- 58
2017-08-06 10:00:00 22.3 5 Nordeste 14 Este 0 -- -- 62
2017-08-06 09:00:00 21.2 5 Sudeste 10 Sur 0 -- -- 65
2017-08-06 08:00:00 19.5 6 Sudoeste 10 Sur 0 -- -- 71
2017-08-06 07:00:00 19 5 Sudoeste 9 Sur 0 -- -- 72
2017-08-06 06:00:00 19.3 7 Sur 14 Sur 0 -- -- 70
2017-08-06 05:00:00 20.2 3 Sudoeste 9 Sudeste 0 -- -- 68
2017-08-06 04:00:00 20.7 6 Sudoeste 17 Sudoeste 0 -- -- 66
2017-08-06 03:00:00 21.6 10 Sudoeste 17 Sudoeste 0 -- -- 63
2017-08-06 02:00:00 22.9 6 Oeste 18 Oeste 0 -- -- 62
2017-08-06 01:00:00 24.5 10 Sudoeste 22 Noroeste 0 -- -- 58
2017-08-06 00:00:00 26.4 5 Noroeste 17 Oeste 0 -- -- 53
2017-08-05 23:00:00 27.5 9 Oeste 37 Noroeste 0 -- -- 51
2017-08-05 22:00:00 29.4 18 Noroeste 38 Oeste 0 -- -- 49
2017-08-05 21:00:00 33.2 21 Sur 33 Sur 0 -- -- 48
2017-08-05 20:00:00 34.4 22 Este 36 Este 0 -- -- 45
2017-08-05 19:00:00 35.6 23 Este 31 Este 0 -- -- 42
2017-08-05 18:00:00 37.5 15 Este 23 Este 0 -- -- 36
2017-08-05 17:00:00 37.4 6 Nordeste 19 Este 0 -- -- 34
2017-08-05 16:00:00 37 11 Nordeste 21 Nordeste 0 -- -- 35
2017-08-05 15:00:00 36.3 13 Sudoeste 26 Sur 0 -- -- 35
2017-08-05 14:00:00 35.4 12 Sudoeste 26 Sudoeste 0 -- -- 36
2017-08-05 13:00:00 33.4 8 Sudeste 15 Norte 0 -- -- 43
2017-08-05 12:00:00 31.3 10 Nordeste 17 Nordeste 0 -- -- 56
2017-08-05 11:00:00 29.8 12 Este 17 Este 0 -- -- 58
2017-08-05 10:00:00 27.9 7 Nordeste 15 Nordeste 0 -- -- 60
2017-08-05 09:00:00 25.9 4 Este 9 Nordeste 0 -- -- 64
2017-08-05 08:00:00 23.5 0 Calma 5 Este 0 -- -- 71
2017-08-05 07:00:00 23.1 0 Calma 7 Este 0 -- -- 72
2017-08-05 06:00:00 23.8 3 Este 8 Nordeste 0 -- -- 68
2017-08-05 05:00:00 24.9 5 Nordeste 9 Este 0 -- -- 65
2017-08-05 04:00:00 25.3 3 Nordeste 8 Nordeste 0 -- -- 67
2017-08-05 03:00:00 26.4 3 Este 11 Nordeste 0 -- -- 61
2017-08-05 02:00:00 27.9 3 Nordeste 11 Oeste 0 -- -- 56
2017-08-05 01:00:00 28.5 3 Oeste 10 Oeste 0 -- -- 48
2017-08-05 00:00:00 29.1 8 Oeste 15 Oeste 0 -- -- 44
2017-08-04 23:00:00 30.6 6 Nordeste 12 Oeste 0 -- -- 45
2017-08-04 22:00:00 32.1 4 Oeste 8 Oeste 0 -- -- 37
2017-08-04 21:00:00 36.3 6 Noroeste 13 Noroeste 0 -- -- 31
2017-08-04 20:00:00 38.3 8 Oeste 19 Oeste 0 -- -- 29
2017-08-04 19:00:00 39 5 Sudoeste 16 Oeste 0 -- -- 29
2017-08-04 18:00:00 37.7 9 Nordeste 21 Nordeste 0 -- -- 31
2017-08-04 17:00:00 38 12 Este 19 Nordeste 0 -- -- 32
2017-08-04 16:00:00 36.8 13 Este 23 Este 0 -- -- 35
2017-08-04 15:00:00 36 12 Nordeste 21 Este 0 -- -- 37
2017-08-04 14:00:00 35.4 9 Sur 23 Sur 0 -- -- 36
2017-08-04 13:00:00 34 6 Sudeste 16 Este 0 -- -- 38
2017-08-04 12:00:00 31.6 7 Este 15 Este 0 -- -- 46
2017-08-04 11:00:00 29.7 9 Este 15 Este 0 -- -- 50
2017-08-04 10:00:00 27.5 8 Nordeste 17 Oeste 0 -- -- 56
2017-08-04 09:00:00 25.6 5 Nordeste 10 Oeste 0 -- -- 59
2017-08-04 08:00:00 22.7 3 Este 6 Este 0 -- -- 70
2017-08-04 07:00:00 21.6 4 Noroeste 6 Noroeste 0 -- -- 68
2017-08-04 06:00:00 22 0 Calma 8 Oeste 0 -- -- 66
2017-08-04 05:00:00 22.5 0 Calma 5 Este 0 -- -- 66
2017-08-04 04:00:00 23.9 3 Nordeste 5 Nordeste 0 -- -- 58
2017-08-04 03:00:00 25 2 Norte 5 Oeste 0 -- -- 56
2017-08-04 02:00:00 26.5 2 Oeste 9 Nordeste 0 -- -- 50
2017-08-04 01:00:00 27.8 6 Este 12 Nordeste 0 -- -- 49
2017-08-04 00:00:00 29.9 10 Sudoeste 18 Sudeste 0 -- -- 41
2017-08-03 23:00:00 31.5 3 Sudeste 18 Sur 0 -- -- 38
2017-08-03 22:00:00 33 4 Sur 20 Sudeste 0 -- -- 37
2017-08-03 21:00:00 35.3 11 Este 24 Este 0 -- -- 34
2017-08-03 20:00:00 37.1 6 Nordeste 10 Nordeste 0 -- -- 28
2017-08-03 19:00:00 38.1 7 Nordeste 17 Nordeste 0 -- -- 27
2017-08-03 18:00:00 38.4 12 Nordeste 23 Este 0 -- -- 26
2017-08-03 17:00:00 38.3 14 Este 22 Este 0 -- -- 28
2017-08-03 16:00:00 38 9 Este 20 Nordeste 0 -- -- 28
2017-08-03 15:00:00 37 12 Nordeste 23 Nordeste 0 -- -- 32
2017-08-03 14:00:00 35.9 9 Este 17 Nordeste 0 -- -- 34
2017-08-03 13:00:00 34 9 Este 17 Este 0 -- -- 38
2017-08-03 12:00:00 31.9 10 Este 17 Este 0 -- -- 44
2017-08-03 11:00:00 29.7 8 Nordeste 16 Nordeste 0 -- -- 48
2017-08-03 10:00:00 28.1 5 Noroeste 12 Nordeste 0 -- -- 53
2017-08-03 09:00:00 24.4 5 Nordeste 8 Nordeste 0 -- -- 67
2017-08-03 08:00:00 21.6 2 Noroeste 4 Noroeste 0 -- -- 73
2017-08-03 07:00:00 20.3 0 Calma 8 Noroeste 0 -- -- 76
2017-08-03 06:00:00 20.8 3 Nordeste 5 Nordeste 0 -- -- 75
2017-08-03 05:00:00 22 0 Calma 6 Oeste 0 -- -- 69
2017-08-03 04:00:00 22.7 2 Oeste 8 Nordeste 0 -- -- 67
2017-08-03 03:00:00 23.7 5 Noroeste 7 Oeste 0 -- -- 64
2017-08-03 02:00:00 25.4 4 Nordeste 9 Nordeste 0 -- -- 59
2017-08-03 01:00:00 25.4 3 Este 6 Nordeste 0 -- -- 61
2017-08-03 00:00:00 26.5 0 Calma 6 Nordeste 0 -- -- 56
2017-08-02 23:00:00 28.8 5 Nordeste 17 Sudeste 0 -- -- 50
2017-08-02 22:00:00 30.3 12 Este 40 Este 0 -- -- 46
2017-08-02 21:00:00 32 17 Este 28 Este 0 -- -- 41
2017-08-02 20:00:00 33 10 Este 31 Este 0 -- -- 45
2017-08-02 19:00:00 33.6 22 Este 32 Este 0 -- -- 42
2017-08-02 18:00:00 35.3 18 Este 26 Este 0 -- -- 29
2017-08-02 17:00:00 36.2 14 Sudeste 26 Sudoeste 0 -- -- 25
2017-08-02 16:00:00 35.3 17 Sudoeste 35 Oeste 0 -- -- 27
2017-08-02 15:00:00 36.1 19 Sudoeste 53 Oeste 0 -- -- 28
2017-08-02 14:00:00 35.1 21 Oeste 35 Sudoeste 0 -- -- 31
2017-08-02 13:00:00 33.4 11 Este 14 Este 0 -- -- 45
2017-08-02 12:00:00 30.6 9 Nordeste 16 Este 0 -- -- 52
2017-08-02 11:00:00 28.5 9 Nordeste 14 Nordeste 0 -- -- 58
2017-08-02 10:00:00 26.1 5 Nordeste 13 Nordeste 0 -- -- 63
2017-08-02 09:00:00 23.6 9 Nordeste 13 Nordeste 0 -- -- 78
2017-08-02 08:00:00 22 3 Sudoeste 6 Noroeste 0 -- -- 79
2017-08-02 07:00:00 21.1 5 Noroeste 6 Este 0 -- -- 83
2017-08-02 06:00:00 21.7 4 Nordeste 16 Nordeste 0 -- -- 82
2017-08-02 05:00:00 23.8 10 Nordeste 15 Nordeste 0 -- -- 70
2017-08-02 04:00:00 23 5 Este 11 Nordeste 0 -- -- 78
2017-08-02 03:00:00 24.2 8 Nordeste 18 Nordeste 0 -- -- 72
2017-08-02 02:00:00 25.1 10 Nordeste 32 Sudeste 0 -- -- 70
2017-08-02 01:00:00 26.8 21 Este 35 Este 0 -- -- 64
2017-08-02 00:00:00 25.5 17 Este 26 Este 0 -- -- 74
2017-08-01 23:00:00 26.2 10 Este 30 Este 0 -- -- 72
2017-08-01 22:00:00 27.1 12 Este 33 Este 0 -- -- 68
2017-08-01 21:00:00 28.3 12 Este 28 Este 0 -- -- 55
2017-08-01 20:00:00 29.2 16 Este 33 Este 0 -- -- 56
2017-08-01 19:00:00 30.1 18 Nordeste 27 Este 0 -- -- 58
2017-08-01 18:00:00 29.9 18 Este 27 Este 0 -- -- 53
2017-08-01 17:00:00 29.1 14 Este 25 Este 0 -- -- 57
2017-08-01 16:00:00 28.3 8 Nordeste 14 Nordeste 0 -- -- 57
2017-08-01 15:00:00 29.1 5 Nordeste 18 Sudeste 0 -- -- 53
2017-08-01 14:00:00 28 8 Nordeste 14 Nordeste 0 -- -- 56
2017-08-01 13:00:00 27.1 4 Este 15 Sur 0 -- -- 61
2017-08-01 12:00:00 26.5 8 Sudoeste 19 Sur 0 -- -- 61
2017-08-01 11:00:00 26.4 9 Sur 17 Sur 0 -- -- 62
2017-08-01 10:00:00 24.5 7 Sur 15 Sur 0 -- -- 66
2017-08-01 09:00:00 22.7 12 Sudoeste 29 Sudoeste 0 -- -- 69
2017-08-01 08:00:00 21.4 23 Sudoeste 31 Sudoeste 0 -- -- 71
2017-08-01 07:00:00 22 18 Sur 27 Sur 0 -- -- 72
2017-08-01 06:00:00 23.8 7 Este 14 Este 0 -- -- 79
2017-08-01 05:00:00 23.3 6 Este 12 Nordeste 0 -- -- 79
2017-08-01 04:00:00 24.4 6 Nordeste 26 Sudeste 0 -- -- 74
2017-08-01 03:00:00 24.9 5 Este 23 Sudeste 0 -- -- 75
2017-08-01 02:00:00 25.2 17 Este 32 Este 0 -- -- 73
2017-08-01 01:00:00 25.5 17 Este 41 Este 0 -- -- 71
2017-08-01 00:00:00 26.5 21 Este 33 Este 0 -- -- 64
2017-07-31 23:00:00 27.2 18 Este 35 Este 0 -- -- 60
2017-07-31 22:00:00 28 24 Este 45 Este 0 -- -- 58
2017-07-31 21:00:00 29.7 13 Este 47 Este 0 -- -- 52
2017-07-31 20:00:00 31.6 26 Este 54 Este 0 -- -- 41
2017-07-31 19:00:00 33.3 35 Este 51 Este 0 -- -- 36
2017-07-31 18:00:00 34.6 29 Este 42 Sudeste 0 -- -- 34
2017-07-31 17:00:00 34.9 26 Este 41 Este 0 -- -- 33
2017-07-31 16:00:00 34.8 27 Este 40 Este 0 -- -- 35
2017-07-31 15:00:00 34.6 19 Este 33 Este 0 -- -- 41
2017-07-31 14:00:00 32.4 17 Este 26 Este 0 -- -- 47
2017-07-31 13:00:00 31.3 16 Este 34 Este 0 -- -- 51
2017-07-31 12:00:00 29.7 19 Este 33 Sudeste 0 -- -- 55
2017-07-31 11:00:00 28.6 20 Sudeste 37 Sur 0 -- -- 59
2017-07-31 10:00:00 26.8 16 Sur 40 Sur 0 -- -- 66
2017-07-31 09:00:00 25.4 9 Sur 16 Sudeste 0 -- -- 70
2017-07-31 08:00:00 22.9 6 Sudoeste 11 Sudoeste 0 -- -- 70
2017-07-31 07:00:00 22.8 4 Sur 12 Este 0 -- -- 75
2017-07-31 06:00:00 23.1 8 Nordeste 13 Este 0 -- -- 67
2017-07-31 05:00:00 24.2 9 Este 15 Este 0 -- -- 62
2017-07-31 04:00:00 25 12 Este 21 Este 0 -- -- 59
2017-07-31 03:00:00 24.6 5 Sudeste 15 Nordeste 0 -- -- 59
2017-07-31 02:00:00 24.6 10 Este 22 Este 0 -- -- 64
2017-07-31 01:00:00 25.7 16 Este 46 Sudeste 0 -- -- 64
2017-07-31 00:00:00 26.1 13 Este 28 Sudeste 0 -- -- 67
2017-07-30 23:00:00 26.5 9 Este 37 Sudeste 0 -- -- 68
2017-07-30 22:00:00 28.4 21 Este 33 Sudeste 0 -- -- 61
2017-07-30 21:00:00 30.4 9 Sudeste 33 Este 0 -- -- 52
2017-07-30 20:00:00 33 18 Este 34 Este 0 -- -- 42
2017-07-30 19:00:00 36.1 19 Sudeste 34 Sudeste 0 -- -- 36
2017-07-30 18:00:00 37.7 21 Este 36 Este 0 -- -- 33
2017-07-30 17:00:00 38.2 18 Este 30 Este 0 -- -- 32
2017-07-30 16:00:00 37 22 Este 32 Este 0 -- -- 32
2017-07-30 15:00:00 35.7 22 Este 31 Este 0 -- -- 39
2017-07-30 14:00:00 34.1 22 Este 29 Este 0 -- -- 45
2017-07-30 13:00:00 31.6 11 Este 21 Este 0 -- -- 49
2017-07-30 12:00:00 29.7 10 Nordeste 19 Este 0 -- -- 50
2017-07-30 11:00:00 28.3 11 Este 17 Este 0 -- -- 57
2017-07-30 10:00:00 26.2 8 Nordeste 12 Nordeste 0 -- -- 58
2017-07-30 09:00:00 24.3 3 Nordeste 8 Este 0 -- -- 64
2017-07-30 08:00:00 21.4 0 Calma 6 Este 0 -- -- 77
2017-07-30 07:00:00 20.1 4 Noroeste 8 Este 0 -- -- 79
2017-07-30 06:00:00 20.8 0 Calma 5 Oeste 0 -- -- 75
2017-07-30 05:00:00 21.8 3 Este 6 Este 0 -- -- 74
2017-07-30 04:00:00 23 2 Norte 13 Nordeste 0 -- -- 66
2017-07-30 03:00:00 24.8 9 Nordeste 25 Este 0 -- -- 58
2017-07-30 02:00:00 25.7 14 Este 29 Este 0 -- -- 57
2017-07-30 01:00:00 25.6 10 Este 17 Este 0 -- -- 61
2017-07-30 00:00:00 25.9 9 Nordeste 13 Este 0 -- -- 69
2017-07-29 23:00:00 27.4 6 Sur 17 Sur 0 -- -- 64
2017-07-29 22:00:00 28.2 5 Sur 13 Nordeste 0 -- -- 64
2017-07-29 21:00:00 29.1 8 Nordeste 19 Este 0 -- -- 63
2017-07-29 20:00:00 31.7 14 Este 26 Este 0 -- -- 55
2017-07-29 19:00:00 34 18 Este 32 Este 0 -- -- 44
2017-07-29 18:00:00 34.8 21 Este 31 Este 0 -- -- 42
2017-07-29 17:00:00 35.4 16 Este 29 Este 0 -- -- 41
2017-07-29 16:00:00 34.8 17 Este 28 Este 0 -- -- 41
2017-07-29 15:00:00 33.3 19 Este 28 Este 0 -- -- 46
2017-07-29 14:00:00 32.8 17 Este 33 Este 0 -- -- 50
2017-07-29 13:00:00 31.1 14 Este 30 Este 0 -- -- 54
2017-07-29 12:00:00 29.4 18 Este 30 Nordeste 0 -- -- 59
2017-07-29 11:00:00 28 17 Este 29 Este 0 -- -- 63
2017-07-29 10:00:00 25.7 10 Nordeste 17 Nordeste 0 -- -- 67
2017-07-29 09:00:00 23.5 10 Nordeste 14 Nordeste 0 -- -- 73
2017-07-29 08:00:00 22 0 Calma 4 Nordeste 0 -- -- 79
2017-07-29 07:00:00 20.7 2 Nordeste 9 Nordeste 0 -- -- 82
2017-07-29 06:00:00 21.1 0 Calma 8 Nordeste 0 -- -- 81
2017-07-29 05:00:00 22.1 0 Calma 17 Nordeste 0 -- -- 77
2017-07-29 04:00:00 23.1 6 Este 16 Este 0 -- -- 73
2017-07-29 03:00:00 23.6 4 Este 18 Este 0 -- -- 73
2017-07-29 02:00:00 23.7 13 Nordeste 21 Este 0 -- -- 75
2017-07-29 01:00:00 25.3 13 Este 24 Este 0 -- -- 67
2017-07-29 00:00:00 25.2 9 Nordeste 14 Nordeste 0 -- -- 70
2017-07-28 23:00:00 27.5 2 Sudoeste 14 Sudeste 0 -- -- 60
2017-07-28 22:00:00 29 9 Este 21 Sur 0 -- -- 54
2017-07-28 21:00:00 31.7 9 Sudeste 28 Sudeste 0 -- -- 47
2017-07-28 20:00:00 33.3 15 Este 27 Este 0 -- -- 44
2017-07-28 19:00:00 35.3 15 Este 20 Este 0 -- -- 36
2017-07-28 18:00:00 35.3 13 Nordeste 20 Nordeste 0 -- -- 35
2017-07-28 17:00:00 34.9 14 Este 20 Nordeste 0 -- -- 37
2017-07-28 16:00:00 34.2 13 Este 22 Este 0 -- -- 40
2017-07-28 15:00:00 33.2 12 Nordeste 20 Nordeste 0 -- -- 43
2017-07-28 14:00:00 31.9 7 Sur 21 Este 0 -- -- 41
2017-07-28 13:00:00 30.3 8 Sur 20 Sur 0 -- -- 46
2017-07-28 12:00:00 28.3 9 Este 17 Este 0 -- -- 55
2017-07-28 11:00:00 26.7 8 Nordeste 13 Este 0 -- -- 59
2017-07-28 10:00:00 24.9 6 Nordeste 12 Este 0 -- -- 64
2017-07-28 09:00:00 23.3 6 Nordeste 10 Nordeste 0 -- -- 67
2017-07-28 08:00:00 21.9 4 Sur 7 Sudoeste 0 -- -- 71
2017-07-28 07:00:00 20.4 3 Este 6 Nordeste 0 -- -- 78
2017-07-28 06:00:00 22.2 2 Nordeste 12 Nordeste 0 -- -- 75
2017-07-28 05:00:00 23.3 4 Norte 24 Nordeste 0 -- -- 71
2017-07-28 04:00:00 24.3 13 Este 24 Este 0 -- -- 66
2017-07-28 03:00:00 24.7 12 Nordeste 18 Este 0 -- -- 64
2017-07-28 02:00:00 25.2 12 Nordeste 16 Nordeste 0 -- -- 71
2017-07-28 01:00:00 26 8 Nordeste 21 Sudoeste 0 -- -- 67
2017-07-28 00:00:00 29.2 13 Sudoeste 22 Sudoeste 0 -- -- 53
2017-07-27 23:00:00 30.4 11 Sur 27 Sur 0 -- -- 47
2017-07-27 22:00:00 31.9 15 Sur 23 Sudeste 0 -- -- 42
2017-07-27 21:00:00 34.3 6 Sudeste 14 Sudeste 0 -- -- 27
2017-07-27 20:00:00 35.5 6 Este 12 Este 0 -- -- 25
2017-07-27 19:00:00 35.7 10 Este 16 Este 0 -- -- 26
2017-07-27 18:00:00 36.2 8 Este 17 Nordeste 0 -- -- 25
2017-07-27 17:00:00 35.9 9 Nordeste 18 Nordeste 0 -- -- 27
2017-07-27 16:00:00 35 10 Este 19 Nordeste 0 -- -- 29
2017-07-27 15:00:00 33.9 11 Nordeste 18 Nordeste 0 -- -- 30
2017-07-27 14:00:00 32.4 10 Nordeste 17 Nordeste 0 -- -- 33
2017-07-27 13:00:00 30.4 9 Este 18 Nordeste 0 -- -- 35
2017-07-27 12:00:00 28.1 9 Nordeste 18 Nordeste 0 -- -- 41
2017-07-27 11:00:00 25.8 8 Nordeste 15 Nordeste 0 -- -- 48
2017-07-27 10:00:00 24.2 7 Norte 15 Norte 0 -- -- 54
2017-07-27 09:00:00 21.8 8 Oeste 14 Noroeste 0 -- -- 56
2017-07-27 08:00:00 19.3 2 Noroeste 12 Noroeste 0 -- -- 63
2017-07-27 07:00:00 17.1 4 Oeste 11 Sudoeste 0 -- -- 67
2017-07-27 06:00:00 18 9 Oeste 13 Oeste 0 -- -- 64
2017-07-27 05:00:00 18.8 4 Este 16 Oeste 0 -- -- 62
2017-07-27 04:00:00 19.8 6 Oeste 14 Sudoeste 0 -- -- 57
2017-07-27 03:00:00 20.6 5 Oeste 13 Noroeste 0 -- -- 51
2017-07-27 02:00:00 21.9 6 Oeste 23 Sudoeste 0 -- -- 47
2017-07-27 01:00:00 24.2 12 Oeste 23 Oeste 0 -- -- 40
2017-07-27 00:00:00 25.8 10 Oeste 19 Oeste 0 -- -- 38
2017-07-26 23:00:00 27.6 8 Oeste 26 Oeste 0 -- -- 37
2017-07-26 22:00:00 29 21 Oeste 33 Oeste 0 -- -- 35
2017-07-26 21:00:00 30.4 16 Oeste 33 Noroeste 0 -- -- 34
2017-07-26 20:00:00 32.3 18 Oeste 28 Oeste 0 -- -- 33
2017-07-26 19:00:00 33.3 17 Oeste 27 Oeste 0 -- -- 31
2017-07-26 18:00:00 32.8 13 Oeste 22 Oeste 0 -- -- 30
2017-07-26 17:00:00 31.8 8 Oeste 25 Noroeste 0 -- -- 31
2017-07-26 16:00:00 30.4 12 Oeste 24 Noroeste 0 -- -- 32
2017-07-26 15:00:00 28.5 12 Oeste 25 Oeste 0 -- -- 37
2017-07-26 14:00:00 27.6 9 Noroeste 23 Noroeste 0 -- -- 39
2017-07-26 13:00:00 25.2 9 Oeste 30 Sudoeste 0 -- -- 44
2017-07-26 12:00:00 23.4 10 Oeste 23 Oeste 0 -- -- 49
2017-07-26 11:00:00 21.3 15 Noroeste 24 Oeste 0 -- -- 53
2017-07-26 10:00:00 19.2 19 Oeste 28 Oeste 0 -- -- 61
2017-07-26 09:00:00 17.6 18 Oeste 24 Oeste 0 -- -- 66
2017-07-26 08:00:00 16.3 7 Sudoeste 14 Sudoeste 0 -- -- 72
2017-07-26 07:00:00 15.1 5 Oeste 17 Oeste 0 -- -- 74
2017-07-26 06:00:00 15.3 12 Sudoeste 17 Sudoeste 0 -- -- 73
2017-07-26 05:00:00 15.3 7 Oeste 10 Sudoeste 0 -- -- 73
2017-07-26 04:00:00 15.9 9 Sudoeste 14 Sudoeste 0 -- -- 68
2017-07-26 03:00:00 16.5 10 Sudoeste 15 Oeste 0 -- -- 66
2017-07-26 02:00:00 17.5 11 Sudoeste 17 Sudoeste 0 -- -- 62
2017-07-26 01:00:00 18.9 12 Sudoeste 25 Sudoeste 0 -- -- 57
2017-07-26 00:00:00 20.4 10 Sudoeste 21 Oeste 0 -- -- 52
2017-07-25 23:00:00 21.6 19 Sudoeste 37 Oeste 0 -- -- 49
2017-07-25 22:00:00 23 15 Sudoeste 49 Oeste 0 -- -- 46
2017-07-25 21:00:00 25.2 20 Oeste 44 Oeste 0 -- -- 42
2017-07-25 20:00:00 27 23 Oeste 45 Oeste 0 -- -- 37
2017-07-25 19:00:00 29.6 22 Oeste 36 Noroeste 0 -- -- 32
2017-07-25 18:00:00 30.2 19 Noroeste 36 Noroeste 0 -- -- 30
2017-07-25 17:00:00 29.9 18 Oeste 50 Noroeste 0 -- -- 31
2017-07-25 16:00:00 29.5 15 Noroeste 31 Oeste 0 -- -- 32
2017-07-25 15:00:00 29 12 Sudoeste 30 Oeste 0 -- -- 33
2017-07-25 14:00:00 27.5 15 Noroeste 28 Oeste 0 -- -- 36
2017-07-25 13:00:00 25.6 15 Oeste 27 Noroeste 0 -- -- 40
2017-07-25 12:00:00 24.4 15 Noroeste 24 Oeste 0 -- -- 44
2017-07-25 11:00:00 22.5 13 Noroeste 25 Noroeste 0 -- -- 48
2017-07-25 10:00:00 20.7 13 Noroeste 29 Noroeste 0 -- -- 54
2017-07-25 09:00:00 19.2 15 Noroeste 27 Oeste 0 -- -- 59
2017-07-25 08:00:00 17.6 8 Oeste 13 Oeste 0 -- -- 66
2017-07-25 07:00:00 16.1 6 Sudoeste 12 Oeste 0 -- -- 71
2017-07-25 06:00:00 17.3 9 Sudoeste 20 Sudoeste 0 -- -- 66
2017-07-25 05:00:00 18 14 Oeste 35 Oeste 0 -- -- 64
2017-07-25 04:00:00 18.7 13 Sudoeste 33 Sudoeste 0 -- -- 63
2017-07-25 03:00:00 19.2 14 Oeste 35 Oeste 0 -- -- 62
2017-07-25 02:00:00 20 19 Oeste 49 Oeste 0 -- -- 58
2017-07-25 01:00:00 20.5 27 Oeste 55 Oeste 0 -- -- 58
2017-07-25 00:00:00 21.6 34 Oeste 58 Noroeste 0 -- -- 55
2017-07-24 23:00:00 22.4 35 Oeste 62 Oeste 0 -- -- 54
2017-07-24 22:00:00 23.2 35 Oeste 77 Oeste 0 -- -- 52
2017-07-24 21:00:00 24.9 37 Oeste 79 Noroeste 0 -- -- 47
2017-07-24 20:00:00 27.1 37 Oeste 62 Oeste 0 -- -- 42
2017-07-24 19:00:00 28.5 41 Oeste 70 Oeste 0 -- -- 39
2017-07-24 18:00:00 29.4 41 Oeste 64 Oeste 0 -- -- 37
2017-07-24 17:00:00 29.6 37 Oeste 58 Oeste 0 -- -- 37
2017-07-24 16:00:00 30 35 Oeste 66 Oeste 0 -- -- 36
2017-07-24 15:00:00 29.5 38 Oeste 60 Oeste 0 -- -- 37
2017-07-24 14:00:00 28.9 35 Oeste 64 Oeste 0 -- -- 39
2017-07-24 13:00:00 27.8 41 Oeste 61 Oeste 0 -- -- 41
2017-07-24 12:00:00 26.9 38 Oeste 63 Oeste 0 -- -- 45
2017-07-24 11:00:00 26 30 Noroeste 60 Oeste 0 -- -- 50
2017-07-24 10:00:00 24.7 24 Oeste 44 Oeste 0 -- -- 53
2017-07-24 09:00:00 22.9 15 Oeste 26 Noroeste 0 -- -- 60
2017-07-24 08:00:00 21 8 Oeste 15 Sudoeste 0 -- -- 67
2017-07-24 07:00:00 17.9 5 Sudoeste 9 Sudoeste 0 -- -- 73
2017-07-24 06:00:00 17.7 5 Oeste 8 Oeste 0 -- -- 73
2017-07-24 05:00:00 19.1 4 Sudoeste 25 Oeste 0 -- -- 65
2017-07-24 04:00:00 19.6 8 Oeste 14 Oeste 0 -- -- 61
2017-07-24 03:00:00 20.5 3 Oeste 21 Sudoeste 0 -- -- 57
2017-07-24 02:00:00 22.3 13 Oeste 23 Sudoeste 0 -- -- 50
2017-07-24 01:00:00 22.6 10 Sudoeste 21 Sudoeste 0 -- -- 67
2017-07-24 00:00:00 22.5 18 Sudoeste 26 Sudoeste 0 -- -- 67
2017-07-23 23:00:00 23.9 10 Sudoeste 16 Sudoeste 0 -- -- 61
2017-07-23 22:00:00 24.9 9 Sudoeste 20 Sur 0 -- -- 56
2017-07-23 21:00:00 26.3 13 Sudoeste 26 Sudoeste 0 -- -- 54
2017-07-23 20:00:00 27.4 14 Sudoeste 26 Sudoeste 0 -- -- 53
2017-07-23 19:00:00 28.5 14 Sudoeste 25 Sudoeste 0 -- -- 51
2017-07-23 18:00:00 27.7 13 Sudeste 28 Sudeste 0 -- -- 57
2017-07-23 17:00:00 28 14 Sudeste 26 Sur 0 -- -- 55
2017-07-23 16:00:00 28.7 15 Este 28 Este 0 -- -- 53
2017-07-23 15:00:00 29.3 7 Sudeste 20 Sur 0 -- -- 51
2017-07-23 14:00:00 28.1 9 Sudoeste 18 Sudoeste 0 -- -- 53
2017-07-23 13:00:00 26.7 8 Sur 20 Sur 0 -- -- 56
2017-07-23 12:00:00 24.1 14 Sudoeste 28 Sudoeste 0 -- -- 61
2017-07-23 11:00:00 22.6 12 Sur 17 Sur 0 -- -- 65
2017-07-23 10:00:00 21.8 6 Oeste 18 Sudoeste 0 -- -- 65
2017-07-23 09:00:00 20.8 5 Oeste 22 Oeste 0 -- -- 69
2017-07-23 08:00:00 21.1 5 Noroeste 16 Oeste 0 -- -- 68
2017-07-23 07:00:00 21.5 5 Sudoeste 10 Oeste 0 -- -- 71
2017-07-23 06:00:00 21.7 5 Este 9 Nordeste 0 -- -- 81
2017-07-23 05:00:00 22.4 3 Este 5 Este 0 -- -- 86
2017-07-23 04:00:00 21.8 0 Calma 5 Oeste 0 -- -- 87
2017-07-23 03:00:00 22.5 0 Calma 6 Nordeste 0 -- -- 84
2017-07-23 02:00:00 23.1 0 Calma 10 Nordeste 0 -- -- 83
2017-07-23 01:00:00 23.9 6 Nordeste 12 Nordeste 0 -- -- 80
2017-07-23 00:00:00 25 6 Este 14 Sur 0 -- -- 76